createdAt,value
2022-12-17T00:02:06.290Z,16.23
2022-12-17T00:04:52.051Z,18.42
2022-12-17T00:07:38.595Z,17.20
2022-12-17T00:10:27.287Z,19.58
2022-12-17T00:13:13.239Z,15.43
2022-12-17T00:15:59.399Z,21.80
2022-12-17T00:18:45.223Z,23.42
2022-12-17T00:21:31.153Z,22.50
2022-12-17T00:24:17.220Z,17.05
2022-12-17T00:27:04.259Z,20.50
2022-12-17T00:29:50.174Z,19.50
2022-12-17T00:32:37.814Z,19.08
2022-12-17T00:35:25.076Z,19.08
2022-12-17T00:38:11.127Z,20.30
2022-12-17T00:40:57.285Z,23.95
2022-12-17T00:43:44.456Z,15.57
2022-12-17T00:46:30.396Z,18.20
2022-12-17T00:49:16.263Z,19.27
2022-12-17T00:52:02.253Z,17.77
2022-12-17T00:54:48.403Z,18.85
2022-12-17T00:57:34.331Z,18.77
2022-12-17T01:00:22.424Z,21.55
2022-12-17T01:03:08.400Z,19.33
2022-12-17T01:05:54.647Z,23.17
2022-12-17T01:08:40.600Z,18.00
2022-12-17T01:11:27.511Z,22.42
2022-12-17T01:14:25.062Z,23.30
2022-12-17T01:17:12.373Z,22.83
2022-12-17T01:19:58.397Z,24.25
2022-12-17T01:22:44.362Z,20.70
2022-12-17T01:25:30.493Z,21.05
2022-12-17T01:28:17.515Z,22.63
2022-12-17T01:31:03.647Z,22.90
2022-12-17T01:33:52.609Z,22.70
2022-12-17T01:36:39.127Z,22.05
2022-12-17T01:39:24.833Z,32.13
2022-12-17T01:42:10.773Z,24.67
2022-12-17T01:45:07.728Z,29.60
2022-12-17T01:47:58.484Z,25.60
2022-12-17T01:50:48.956Z,26.00
2022-12-17T01:53:38.654Z,25.17
2022-12-17T01:56:26.411Z,28.15
2022-12-17T01:59:12.147Z,26.85
2022-12-17T02:01:58.905Z,24.10
2022-12-17T02:04:45.914Z,28.75
2022-12-17T02:07:57.509Z,29.20
2022-12-17T02:10:49.114Z,27.13
2022-12-17T02:13:40.328Z,29.30
2022-12-17T02:16:31.053Z,27.83
2022-12-17T02:19:33.164Z,28.40
2022-12-17T02:22:25.998Z,29.10
2022-12-17T02:25:19.782Z,25.52
2022-12-17T02:28:07.297Z,36.67
2022-12-17T02:30:55.423Z,31.13
2022-12-17T02:33:42.578Z,30.25
2022-12-17T02:36:29.270Z,26.00
2022-12-17T02:39:11.569Z,25.00
2022-12-17T02:42:04.077Z,33.83
2022-12-17T02:44:54.153Z,30.95
2022-12-17T02:47:42.229Z,30.95
2022-12-17T02:50:29.052Z,30.38
2022-12-17T02:53:19.133Z,26.30
2022-12-17T02:56:05.122Z,27.42
2022-12-17T02:58:54.106Z,33.80
2022-12-17T03:01:41.251Z,29.05
2022-12-17T03:04:27.560Z,23.67
2022-12-17T03:07:13.500Z,28.27
2022-12-17T03:10:01.171Z,28.15
2022-12-17T03:12:47.867Z,30.02
2022-12-17T03:15:34.260Z,29.55
2022-12-17T03:18:21.251Z,25.83
2022-12-17T03:21:11.172Z,22.35
2022-12-17T03:23:57.626Z,25.83
2022-12-17T03:26:43.759Z,25.98
2022-12-17T03:29:29.816Z,26.85
2022-12-17T03:32:16.486Z,30.27
2022-12-17T03:35:03.652Z,25.85
2022-12-17T03:37:49.670Z,21.98
2022-12-17T03:40:35.765Z,25.48
2022-12-17T03:43:25.665Z,27.20
2022-12-17T03:46:12.175Z,24.88
2022-12-17T03:48:58.439Z,26.60
2022-12-17T03:51:45.479Z,25.30
2022-12-17T03:54:31.229Z,27.15
2022-12-17T03:57:17.211Z,26.35
2022-12-17T04:00:03.170Z,32.60
2022-12-17T04:02:58.284Z,26.15
2022-12-17T04:05:44.057Z,27.27
2022-12-17T04:08:31.213Z,24.25
2022-12-17T04:11:17.097Z,36.60
2022-12-17T04:14:03.211Z,35.90
2022-12-17T04:16:49.319Z,25.00
2022-12-17T04:19:35.256Z,22.75
2022-12-17T04:22:21.115Z,28.35
2022-12-17T04:25:08.203Z,27.92
2022-12-17T04:27:54.128Z,24.38
2022-12-17T04:30:39.956Z,30.92
2022-12-17T04:33:25.911Z,24.13
2022-12-17T04:36:11.941Z,27.20
2022-12-17T04:38:57.962Z,26.08
2022-12-17T04:41:46.603Z,24.55
2022-12-17T04:44:46.928Z,25.63
2022-12-17T04:47:32.974Z,24.40
2022-12-17T04:50:18.639Z,20.27
2022-12-17T04:53:04.603Z,27.65
2022-12-17T04:55:52.991Z,34.67
2022-12-17T04:58:40.325Z,26.17
2022-12-17T05:01:26.485Z,29.90
2022-12-17T05:04:12.776Z,25.73
2022-12-17T05:06:58.741Z,28.17
2022-12-17T05:09:44.656Z,29.05
2022-12-17T05:12:30.615Z,25.40
2022-12-17T05:15:17.670Z,27.35
2022-12-17T05:18:04.092Z,20.88
2022-12-17T05:20:50.168Z,25.00
2022-12-17T05:23:36.410Z,26.85
2022-12-17T05:26:25.570Z,28.45
2022-12-17T05:29:15.767Z,27.63
2022-12-17T05:32:03.229Z,26.98
2022-12-17T05:34:49.104Z,23.45
2022-12-17T05:37:37.567Z,35.30
2022-12-17T05:40:24.890Z,28.60
2022-12-17T05:43:15.523Z,30.35
2022-12-17T05:46:01.438Z,30.80
2022-12-17T05:48:49.113Z,32.20
2022-12-17T05:51:38.660Z,25.13
2022-12-17T05:54:26.396Z,32.08
2022-12-17T05:57:12.840Z,29.23
2022-12-17T05:59:58.689Z,26.33
2022-12-17T06:02:44.908Z,26.65
2022-12-17T06:05:32.902Z,24.98
2022-12-17T06:08:23.459Z,23.88
2022-12-17T06:11:09.541Z,26.17
2022-12-17T06:13:55.283Z,24.02
2022-12-17T06:16:43.320Z,26.10
2022-12-17T06:19:28.996Z,27.67
2022-12-17T06:22:18.307Z,28.38
2022-12-17T06:25:03.842Z,35.03
2022-12-17T06:27:49.894Z,25.17
2022-12-17T06:30:35.732Z,28.42
2022-12-17T06:33:25.987Z,32.53
2022-12-17T06:36:21.691Z,25.30
2022-12-17T06:39:09.838Z,26.42
2022-12-17T06:42:00.485Z,29.98
2022-12-17T06:44:50.021Z,28.40
2022-12-17T06:47:36.111Z,27.83
2022-12-17T06:50:22.898Z,27.98
2022-12-17T06:53:18.908Z,27.95
2022-12-17T06:56:06.200Z,33.92
2022-12-17T06:58:52.309Z,30.08
2022-12-17T07:01:38.264Z,30.35
2022-12-17T07:04:24.982Z,35.90
2022-12-17T07:07:11.041Z,35.55
2022-12-17T07:09:57.206Z,35.05
2022-12-17T07:12:44.716Z,28.75
2022-12-17T07:15:30.603Z,31.15
2022-12-17T07:18:19.859Z,27.50
2022-12-17T07:21:06.812Z,33.13
2022-12-17T07:23:53.113Z,34.97
2022-12-17T07:26:39.092Z,30.98
2022-12-17T07:29:26.121Z,30.13
2022-12-17T07:32:12.063Z,31.10
2022-12-17T07:35:00.338Z,31.85
2022-12-17T07:37:46.054Z,28.70
2022-12-17T07:40:32.037Z,28.52
2022-12-17T07:43:18.150Z,33.17
2022-12-17T07:46:05.555Z,31.50
2022-12-17T07:48:51.545Z,35.50
2022-12-17T07:51:37.672Z,41.75
2022-12-17T07:54:37.953Z,42.45
2022-12-17T07:57:24.100Z,35.80
2022-12-17T08:00:09.113Z,46.05
2022-12-17T08:02:56.497Z,35.22
2022-12-17T08:05:42.631Z,42.95
2022-12-17T08:08:31.906Z,33.38
2022-12-17T08:11:17.779Z,40.40
2022-12-17T08:14:03.920Z,33.00
2022-12-17T08:16:49.945Z,42.08
2022-12-17T08:19:37.008Z,38.30
2022-12-17T08:22:23.011Z,54.25
2022-12-17T08:25:09.004Z,42.33
2022-12-17T08:27:55.069Z,37.60
2022-12-17T08:30:43.440Z,43.90
2022-12-17T08:33:29.409Z,46.15
2022-12-17T08:36:17.004Z,56.72
2022-12-17T08:39:03.942Z,45.70
2022-12-17T08:41:54.233Z,47.10
2022-12-17T08:44:41.264Z,47.03
2022-12-17T08:47:27.322Z,42.97
2022-12-17T08:50:13.424Z,38.42
2022-12-17T08:53:00.481Z,43.65
2022-12-17T08:55:46.487Z,47.58
2022-12-17T08:58:32.446Z,50.08
2022-12-17T09:01:19.263Z,50.85
2022-12-17T09:04:05.933Z,49.03
2022-12-17T09:06:52.008Z,51.25
2022-12-17T09:09:39.122Z,38.72
2022-12-17T09:12:25.092Z,44.53
2022-12-17T09:15:10.851Z,58.67
2022-12-17T09:17:56.919Z,52.28
2022-12-17T09:20:43.148Z,49.63
2022-12-17T09:23:29.224Z,47.85
2022-12-17T09:26:16.611Z,61.22
2022-12-17T09:29:02.427Z,53.97
2022-12-17T09:31:49.654Z,56.08
2022-12-17T09:34:36.288Z,67.00
2022-12-17T09:37:22.679Z,56.08
2022-12-17T09:40:08.370Z,45.28
2022-12-17T09:43:02.730Z,53.13
2022-12-17T09:45:55.197Z,51.55
2022-12-17T09:48:48.885Z,56.80
2022-12-17T09:51:42.042Z,62.47
2022-12-17T09:54:43.457Z,48.65
2022-12-17T09:57:36.237Z,55.15
2022-12-17T10:00:33.580Z,55.25
2022-12-17T10:03:21.065Z,44.22
2022-12-17T10:06:07.991Z,45.13
2022-12-17T10:08:54.458Z,50.08
2022-12-17T10:11:47.029Z,38.08
2022-12-17T10:14:38.981Z,43.47
2022-12-17T10:17:35.289Z,43.65
2022-12-17T10:20:23.297Z,38.15
2022-12-17T10:23:09.745Z,38.28
2022-12-17T10:26:01.007Z,35.67
2022-12-17T10:28:51.268Z,38.70
2022-12-17T10:31:40.556Z,42.80
2022-12-17T10:34:34.135Z,36.35
2022-12-17T10:37:19.952Z,40.30
2022-12-17T10:40:14.891Z,45.47
2022-12-17T10:43:05.823Z,47.00
2022-12-17T10:45:53.790Z,47.45
2022-12-17T10:48:41.958Z,49.53
2022-12-17T10:51:40.702Z,38.35
2022-12-17T10:54:41.637Z,39.92
2022-12-17T10:57:43.255Z,41.97
2022-12-17T11:00:49.812Z,36.85
2022-12-17T11:03:50.640Z,41.38
2022-12-17T11:06:44.789Z,40.83
2022-12-17T11:09:46.470Z,48.70
2022-12-17T11:12:35.518Z,43.22
2022-12-17T11:15:35.666Z,26.73
2022-12-17T11:18:23.289Z,39.08
2022-12-17T11:21:20.152Z,42.40
2022-12-17T11:24:10.814Z,37.58
2022-12-17T11:27:00.013Z,40.05
2022-12-17T11:29:46.861Z,31.80
2022-12-17T11:33:06.972Z,37.55
2022-12-17T11:36:05.596Z,46.60
2022-12-17T11:38:59.253Z,41.28
2022-12-17T11:41:58.652Z,41.58
2022-12-17T11:45:03.845Z,35.83
2022-12-17T11:47:59.623Z,32.38
2022-12-17T11:50:51.392Z,47.15
2022-12-17T11:54:03.557Z,46.92
2022-12-17T11:56:57.446Z,46.17
2022-12-17T11:59:53.263Z,42.08
2022-12-17T12:03:03.431Z,41.60
2022-12-17T12:06:00.867Z,48.28
2022-12-17T12:08:49.182Z,51.70
2022-12-17T12:11:47.290Z,44.35
2022-12-17T12:14:47.540Z,48.92
2022-12-17T12:17:51.677Z,53.05
2022-12-17T12:20:53.782Z,49.70
2022-12-17T12:23:48.823Z,42.22
2022-12-17T12:26:39.905Z,43.88
2022-12-17T12:29:43.572Z,41.20
2022-12-17T12:32:35.962Z,44.30
2022-12-17T12:35:23.709Z,51.28
2022-12-17T12:38:09.846Z,50.38
2022-12-17T12:41:05.194Z,41.15
2022-12-17T12:43:54.730Z,46.25
2022-12-17T12:46:49.583Z,46.95
2022-12-17T12:49:41.806Z,46.78
2022-12-17T12:52:33.779Z,47.95
2022-12-17T12:55:19.641Z,45.72
2022-12-17T12:58:16.717Z,41.10
2022-12-17T13:01:13.783Z,44.33
2022-12-17T13:04:11.844Z,49.10
2022-12-17T13:06:46.581Z,42.33
2022-12-17T13:09:49.069Z,44.38
2022-12-17T13:12:42.379Z,45.33
2022-12-17T13:15:23.341Z,37.50
2022-12-17T13:18:06.886Z,45.28
2022-12-17T13:20:36.901Z,45.60
2022-12-17T13:23:26.724Z,43.10
2022-12-17T13:26:20.502Z,47.17
2022-12-17T13:29:13.125Z,46.30
2022-12-17T13:32:18.787Z,39.83
2022-12-17T13:35:11.657Z,36.03
2022-12-17T13:37:52.610Z,38.38
2022-12-17T13:40:35.620Z,46.13
2022-12-17T13:43:04.646Z,49.80
2022-12-17T13:45:37.848Z,43.33
2022-12-17T13:48:06.906Z,44.05
2022-12-17T13:50:36.460Z,38.13
2022-12-17T13:53:15.913Z,42.15
2022-12-17T13:55:53.041Z,46.08
2022-12-17T13:58:26.875Z,49.55
2022-12-17T14:01:07.445Z,50.70
2022-12-17T14:04:04.425Z,51.03
2022-12-17T14:06:35.734Z,44.22
2022-12-17T14:09:06.699Z,49.05
2022-12-17T14:11:56.004Z,49.88
2022-12-17T14:14:33.843Z,44.25
2022-12-17T14:17:02.943Z,45.28
2022-12-17T14:19:34.472Z,51.28
2022-12-17T14:22:03.137Z,45.90
2022-12-17T14:24:33.046Z,45.03
2022-12-17T14:27:02.534Z,49.33
2022-12-17T14:29:33.236Z,44.78
2022-12-17T14:32:04.587Z,41.95
2022-12-17T14:34:42.308Z,48.50
2022-12-17T14:37:22.969Z,49.10
2022-12-17T14:39:58.407Z,41.90
2022-12-17T14:42:29.689Z,41.15
2022-12-17T14:45:01.227Z,43.45
2022-12-17T14:47:32.597Z,46.15
2022-12-17T14:50:06.408Z,43.05
2022-12-17T14:52:42.451Z,38.38
2022-12-17T14:55:31.773Z,38.83
2022-12-17T14:58:18.988Z,40.58
2022-12-17T15:00:51.960Z,46.00
2022-12-17T15:03:25.583Z,36.60
2022-12-17T15:05:58.279Z,37.75
2022-12-17T15:08:27.156Z,32.75
2022-12-17T15:10:57.038Z,43.20
2022-12-17T15:13:25.521Z,41.38
2022-12-17T15:15:54.055Z,45.55
2022-12-17T15:18:22.989Z,52.78
2022-12-17T15:20:51.459Z,43.97
2022-12-17T15:23:22.755Z,43.00
2022-12-17T15:25:53.795Z,46.22
2022-12-17T15:28:24.934Z,46.58
2022-12-17T15:30:53.381Z,53.53
2022-12-17T15:33:22.134Z,44.15
2022-12-17T15:35:50.484Z,50.70
2022-12-17T15:38:18.916Z,49.53
2022-12-17T15:40:47.296Z,54.17
2022-12-17T15:43:16.007Z,46.28
2022-12-17T15:45:48.185Z,49.05
2022-12-17T15:48:19.404Z,55.17
2022-12-17T15:50:48.544Z,48.95
2022-12-17T15:53:18.107Z,51.88
2022-12-17T15:55:46.523Z,45.67
2022-12-17T15:58:14.996Z,51.38
2022-12-17T16:00:43.316Z,41.17
2022-12-17T16:03:13.183Z,44.63
2022-12-17T16:05:41.650Z,41.65
2022-12-17T16:08:10.088Z,50.13
2022-12-17T16:10:39.800Z,39.60
2022-12-17T16:13:08.228Z,46.42
2022-12-17T16:15:36.675Z,40.63
2022-12-17T16:18:05.382Z,34.30
2022-12-17T16:20:35.100Z,43.72
2022-12-17T16:23:03.649Z,42.03
2022-12-17T16:25:32.260Z,48.50
2022-12-17T16:28:00.602Z,45.40
2022-12-17T16:30:28.972Z,43.00
2022-12-17T16:32:59.788Z,49.08
2022-12-17T16:35:29.523Z,48.50
2022-12-17T16:37:59.288Z,51.60
2022-12-17T16:40:28.222Z,38.40
2022-12-17T16:42:57.586Z,47.63
2022-12-17T16:45:25.975Z,54.20
2022-12-17T16:47:54.374Z,50.80
2022-12-17T16:50:22.753Z,51.63
2022-12-17T16:52:51.688Z,39.58
2022-12-17T16:55:21.456Z,53.33
2022-12-17T16:57:49.815Z,49.58
2022-12-17T17:00:18.784Z,50.83
2022-12-17T17:02:53.050Z,51.33
2022-12-17T17:05:22.020Z,46.88
2022-12-17T17:07:50.464Z,50.50
2022-12-17T17:10:20.405Z,57.78
2022-12-17T17:12:48.715Z,52.42
2022-12-17T17:15:17.389Z,60.17
2022-12-17T17:17:53.846Z,59.22
2022-12-17T17:20:24.985Z,57.13
2022-12-17T17:22:53.390Z,64.25
2022-12-17T17:25:24.290Z,55.90
2022-12-17T17:27:52.870Z,54.97
2022-12-17T17:30:21.352Z,55.05
2022-12-17T17:32:50.054Z,50.30
2022-12-17T17:35:18.591Z,47.60
2022-12-17T17:37:46.971Z,61.03
2022-12-17T17:40:15.867Z,51.63
2022-12-17T17:42:50.201Z,54.88
2022-12-17T17:45:20.218Z,55.63
2022-12-17T17:47:48.541Z,56.95
2022-12-17T17:50:17.256Z,44.50
2022-12-17T17:52:45.683Z,57.88
2022-12-17T17:55:14.045Z,54.83
2022-12-17T17:57:42.485Z,57.20
2022-12-17T18:00:14.208Z,49.70
2022-12-17T18:02:42.680Z,49.70
2022-12-17T18:05:11.373Z,19.75
2022-12-17T18:07:39.703Z,48.70
2022-12-17T18:10:09.918Z,52.53
2022-12-17T18:13:10.458Z,62.95
2022-12-17T18:15:40.275Z,59.15
2022-12-17T18:18:14.335Z,54.15
2022-12-17T18:20:43.217Z,55.20
2022-12-17T18:23:11.648Z,55.17
2022-12-17T18:25:40.069Z,46.63
2022-12-17T18:28:08.507Z,52.40
2022-12-17T18:30:40.717Z,46.97
2022-12-17T18:33:09.137Z,55.63
2022-12-17T18:35:37.546Z,49.10
2022-12-17T18:38:05.902Z,45.65
2022-12-17T18:40:36.823Z,47.40
2022-12-17T18:43:22.818Z,36.08
2022-12-17T18:45:53.317Z,42.08
2022-12-17T18:48:21.840Z,39.88
2022-12-17T18:50:50.265Z,43.97
2022-12-17T18:53:18.751Z,43.30
2022-12-17T18:55:47.078Z,39.78
2022-12-17T18:58:15.514Z,47.97
2022-12-17T19:00:44.054Z,49.13
2022-12-17T19:03:14.637Z,51.20
2022-12-17T19:05:46.433Z,51.97
2022-12-17T19:08:16.100Z,48.38
2022-12-17T19:10:44.522Z,49.28
2022-12-17T19:13:12.889Z,41.75
2022-12-17T19:15:41.267Z,46.97
2022-12-17T19:18:09.673Z,40.78
2022-12-17T19:20:39.467Z,43.25
2022-12-17T19:23:07.979Z,47.55
2022-12-17T19:25:36.415Z,57.17
2022-12-17T19:28:05.144Z,42.88
2022-12-17T19:30:34.269Z,46.83
2022-12-17T19:33:02.615Z,40.33
2022-12-17T19:35:30.995Z,42.30
2022-12-17T19:38:00.660Z,41.17
2022-12-17T19:40:29.108Z,46.88
2022-12-17T19:42:59.766Z,39.28
2022-12-17T19:45:28.173Z,44.97
2022-12-17T19:47:56.742Z,37.00
2022-12-17T19:50:25.152Z,43.80
2022-12-17T19:52:53.511Z,46.63
2022-12-17T19:55:23.253Z,39.05
2022-12-17T19:57:51.617Z,40.78
2022-12-17T20:00:20.912Z,42.15
2022-12-17T20:02:49.466Z,37.75
2022-12-17T20:05:18.142Z,40.00
2022-12-17T20:07:47.525Z,46.85
2022-12-17T20:10:16.201Z,46.83
2022-12-17T20:12:45.941Z,43.88
2022-12-17T20:15:14.317Z,49.00
2022-12-17T20:17:42.741Z,44.05
2022-12-17T20:20:12.424Z,47.33
2022-12-17T20:22:40.848Z,45.08
2022-12-17T20:25:11.379Z,50.58
2022-12-17T20:27:40.486Z,48.28
2022-12-17T20:30:11.815Z,51.97
2022-12-17T20:32:40.159Z,51.83
2022-12-17T20:35:09.868Z,50.55
2022-12-17T20:37:38.273Z,49.80
2022-12-17T20:40:08.948Z,47.28
2022-12-17T20:42:37.340Z,49.33
2022-12-17T20:45:06.564Z,54.03
2022-12-17T20:47:36.342Z,54.47
2022-12-17T20:50:05.085Z,51.92
2022-12-17T20:52:33.487Z,54.45
2022-12-17T20:55:01.801Z,56.20
2022-12-17T20:57:30.195Z,47.20
2022-12-17T20:59:58.612Z,64.18
2022-12-17T21:02:27.394Z,54.13
2022-12-17T21:04:57.187Z,52.63
2022-12-17T21:07:25.522Z,51.60
2022-12-17T21:09:53.933Z,60.58
2022-12-17T21:12:22.506Z,57.35
2022-12-17T21:14:50.899Z,57.20
2022-12-17T21:17:19.332Z,59.60
2022-12-17T21:19:47.767Z,40.60
2022-12-17T21:22:17.666Z,70.80
2022-12-17T21:24:46.124Z,50.35
2022-12-17T21:27:15.121Z,51.22
2022-12-17T21:29:44.163Z,44.63
2022-12-17T21:32:12.495Z,48.38
2022-12-17T21:34:41.173Z,30.00
2022-12-17T21:37:11.219Z,45.70
2022-12-17T21:39:41.070Z,52.92
2022-12-17T21:42:26.796Z,45.15
2022-12-17T21:44:55.277Z,40.88
2022-12-17T21:47:23.916Z,43.45
2022-12-17T21:49:52.273Z,51.60
2022-12-17T21:52:20.718Z,48.60
2022-12-17T21:54:50.470Z,47.30
2022-12-17T21:57:18.984Z,54.78
2022-12-17T21:59:47.924Z,42.53
2022-12-17T22:02:17.176Z,48.22
2022-12-17T22:04:45.798Z,53.33
2022-12-17T22:07:16.274Z,43.33
2022-12-17T22:10:16.664Z,44.90
2022-12-17T22:12:53.641Z,37.58
2022-12-17T22:15:22.036Z,43.28
2022-12-17T22:17:55.041Z,45.42
2022-12-17T22:20:24.809Z,54.45
2022-12-17T22:22:53.093Z,37.90
2022-12-17T22:25:21.547Z,43.40
2022-12-17T22:27:51.386Z,42.80
2022-12-17T22:30:37.509Z,46.30
2022-12-17T22:33:30.071Z,51.53
2022-12-17T22:37:13.176Z,50.60
2022-12-17T22:44:25.904Z,40.47
2022-12-17T22:44:37.805Z,49.78
2022-12-17T22:44:53.364Z,51.33
2022-12-17T22:47:23.363Z,55.83
2022-12-17T22:49:51.692Z,36.58
2022-12-17T22:52:20.922Z,49.33
2022-12-17T22:54:49.457Z,46.60
2022-12-17T22:57:36.868Z,63.85
2022-12-17T23:00:16.323Z,49.90
2022-12-17T23:02:44.804Z,42.97
2022-12-17T23:05:13.260Z,50.15
2022-12-17T23:07:41.703Z,44.47
2022-12-17T23:10:10.989Z,50.30
2022-12-17T23:12:51.613Z,40.10
2022-12-17T23:15:28.346Z,42.85
2022-12-17T23:17:59.318Z,42.38
2022-12-17T23:20:30.528Z,48.40
2022-12-17T23:22:59.354Z,40.00
2022-12-17T23:25:29.366Z,45.00
2022-12-17T23:27:57.789Z,45.63
2022-12-17T23:30:27.600Z,38.38
2022-12-17T23:32:56.452Z,26.33
2022-12-17T23:35:25.567Z,37.72
2022-12-17T23:37:53.924Z,34.88
2022-12-17T23:40:22.938Z,41.95
2022-12-17T23:42:51.242Z,37.80
2022-12-17T23:45:19.637Z,45.38
2022-12-17T23:47:49.528Z,47.60
2022-12-17T23:50:19.911Z,39.42
2022-12-17T23:52:48.286Z,37.00
2022-12-17T23:55:16.617Z,37.45
2022-12-17T23:57:45.021Z,43.47
